Flagstaff, AZ (86001)

9:07 PM MST on September 02, 2015 (GMT -0700)
University Highlands | | Change Station
CLOSE
Current Station
Personal Weather Station
Location: Flagstaff, AZ
Elevation: 7067 ft
Nearby Weather Stations

Elev 7067 ft 35.17 °N, 111.68 °W | Updated 1 minute ago

Partly Cloudy
Partly Cloudy
63.3 °F
Feels Like 63.3 °F
N
0.0
Wind Variable Wind from WSW
Gusts 0.0 mph

Today
High -- | Low -- °F
--% Chance of Precip.
Yesterday
High -- | Low -- °F
Precip. -- in
5:59 AM 6:52 PM
Waning Gibbous, 74% visible
Pressure 30.02 in
Visibility 10.0 miles
Clouds Clear
Dew Point 39 °F
Humidity 40%
Rainfall 0.00 in
Snow Depth Not available.
UV 0.0 out of 12
Pollen 6.00 out of 12
Air Quality Not available.
Flu Activity Not available.
METAR KFLG 030357Z AUTO 00000KT 10SM CLR 14/05 A3029 RMK AO2 SLP164 T01440050
Pressure 30.02 in
Visibility 10.0 miles
Clouds Clear
Dew Point 39 °F
Humidity 40%
Rainfall 0.00 in
Snow Depth Not available.
UV 0.0 out of 12
Pollen 6.00 out of 12
Air Quality Not available.
Flu Activity Not available.
METAR KFLG 030357Z AUTO 00000KT 10SM CLR 14/05 A3029 RMK AO2 SLP164 T01440050

10-Day Weather Forecast

×

Almanac

Astronomy

Sep. 02, 2015 Rise Set
Actual Time
Civil Twilight
Nautical Twilight
Astronomical Twilight
Moon
Length of Visible Light
Length of Day
Tomorrow will be .
, % of the Moon is Illuminated

Today's Extremes

State Highs State Lows

Community

WunderPhotos

Upload Photos

1,851,908 photos uploaded!

WunderBlogs® & News

Nearby

Air Quality

  Air Quality AQ Index Pollutant
Not available.

Snow Depth

Station Depth Elevation

Earthquake Activity

City Distance Mag. Time & Date
Minimum magnitude displayed is 2.5.

Coastal Water Temperatures

Place Temperature

Stations

Nearby Weather Stations

Station Location Temp. Windchill Dew Point Humidity Wind Precip. Elev Updated Type